createdAt,value
2017-03-12T00:00:22.546Z,6.65
2017-03-12T00:01:17.167Z,6.59
2017-03-12T00:02:13.280Z,6.57
2017-03-12T00:03:15.567Z,6.58
2017-03-12T00:04:13.312Z,6.47
2017-03-12T00:05:17.257Z,6.43
2017-03-12T00:06:15.910Z,6.34
2017-03-12T00:07:16.722Z,6.49
2017-03-12T00:08:13.570Z,6.42
2017-03-12T00:09:17.338Z,6.51
2017-03-12T00:10:22.256Z,6.51
2017-03-12T00:11:21.576Z,6.40
2017-03-12T00:12:22.579Z,6.26
2017-03-12T00:13:15.590Z,6.25
2017-03-12T00:14:11.669Z,6.22
2017-03-12T00:15:13.862Z,6.31
2017-03-12T00:16:18.008Z,6.13
2017-03-12T00:17:18.195Z,6.12
2017-03-12T00:18:17.327Z,6.11
2017-03-12T00:19:13.197Z,6.09
2017-03-12T00:20:16.697Z,6.00
2017-03-12T00:21:16.570Z,6.16
2017-03-12T00:22:13.565Z,6.11
2017-03-12T00:23:16.579Z,6.08
2017-03-12T00:24:21.857Z,6.20
2017-03-12T00:25:16.864Z,6.10
2017-03-12T00:26:17.718Z,5.94
2017-03-12T00:27:13.565Z,5.99
2017-03-12T00:28:15.588Z,6.15
2017-03-12T00:29:15.612Z,6.15
2017-03-12T00:30:22.578Z,6.10
2017-03-12T00:31:17.296Z,5.98
2017-03-12T00:32:22.178Z,5.85
2017-03-12T00:33:13.661Z,5.89
2017-03-12T00:34:16.048Z,5.86
2017-03-12T00:35:17.506Z,5.86
2017-03-12T00:36:16.316Z,5.74
2017-03-12T00:37:17.492Z,5.86
2017-03-12T00:38:13.121Z,5.84
2017-03-12T00:39:18.134Z,5.71
2017-03-12T00:40:15.275Z,5.73
2017-03-12T00:41:17.370Z,5.79
2017-03-12T00:42:15.583Z,5.83
2017-03-12T00:43:22.250Z,5.67
2017-03-12T00:44:15.907Z,5.59
2017-03-12T00:45:18.056Z,5.67
2017-03-12T00:46:17.148Z,5.73
2017-03-12T00:47:15.879Z,5.75
2017-03-12T00:48:21.985Z,5.59
2017-03-12T00:49:15.248Z,5.52
2017-03-12T00:50:16.900Z,5.55
2017-03-12T00:51:18.556Z,5.46
2017-03-12T00:52:12.990Z,5.34
2017-03-12T00:53:15.309Z,5.38
2017-03-12T00:54:17.117Z,5.45
2017-03-12T00:55:16.575Z,5.22
2017-03-12T00:56:13.798Z,5.38
2017-03-12T00:57:22.217Z,5.38
2017-03-12T00:58:15.905Z,5.31
2017-03-12T00:59:15.302Z,5.20
2017-03-12T01:00:16.365Z,5.28
2017-03-12T01:01:17.507Z,5.30
2017-03-12T01:02:16.568Z,5.36
2017-03-12T01:03:11.634Z,5.38
2017-03-12T01:04:15.913Z,5.37
2017-03-12T01:05:13.521Z,5.20
2017-03-12T01:06:16.621Z,5.14
2017-03-12T01:07:13.673Z,5.18
2017-03-12T01:08:15.327Z,5.14
2017-03-12T01:09:17.580Z,5.01
2017-03-12T01:10:13.739Z,5.11
2017-03-12T01:11:21.614Z,5.06
2017-03-12T01:12:21.819Z,5.06
2017-03-12T01:13:16.384Z,5.11
2017-03-12T01:14:16.651Z,5.12
2017-03-12T01:15:14.443Z,5.14
2017-03-12T01:16:17.285Z,5.04
2017-03-12T01:17:13.497Z,5.00
2017-03-12T01:18:17.208Z,5.08
2017-03-12T01:19:15.476Z,5.04
2017-03-12T01:20:17.360Z,4.90
2017-03-12T01:21:15.891Z,4.93
2017-03-12T01:22:22.513Z,5.03
2017-03-12T01:23:15.581Z,5.05
2017-03-12T01:24:16.697Z,4.86
2017-03-12T01:25:15.372Z,4.93
2017-03-12T01:26:15.687Z,4.93
2017-03-12T01:27:12.831Z,4.98
2017-03-12T01:28:15.716Z,4.81
2017-03-12T01:29:15.685Z,4.96
2017-03-12T01:30:13.648Z,4.92
2017-03-12T01:31:14.432Z,4.90
2017-03-12T01:32:22.993Z,4.87
2017-03-12T01:33:16.652Z,4.78
2017-03-12T01:34:16.700Z,4.80
2017-03-12T01:35:15.680Z,4.81
2017-03-12T01:36:17.994Z,4.80
2017-03-12T01:37:21.791Z,4.69
2017-03-12T01:38:16.898Z,4.74
2017-03-12T01:39:16.896Z,4.78
2017-03-12T01:40:22.012Z,4.73
2017-03-12T01:41:16.803Z,4.67
2017-03-12T01:42:11.903Z,4.73
2017-03-12T01:43:16.910Z,4.64
2017-03-12T01:44:15.603Z,4.69
2017-03-12T01:45:21.634Z,4.60
2017-03-12T01:46:17.014Z,4.60
2017-03-12T01:47:16.857Z,4.72
2017-03-12T01:48:16.610Z,4.81
2017-03-12T01:49:11.469Z,4.84
2017-03-12T01:50:15.258Z,4.78
2017-03-12T01:51:15.533Z,4.91
2017-03-12T01:52:15.454Z,4.81
2017-03-12T01:53:22.633Z,5.05
2017-03-12T01:54:15.750Z,5.08
2017-03-12T01:55:21.941Z,5.05
2017-03-12T01:56:15.772Z,5.00
2017-03-12T01:57:17.892Z,5.14
2017-03-12T01:58:21.116Z,5.07
2017-03-12T01:59:21.212Z,5.20
2017-03-12T02:00:17.959Z,5.21
2017-03-12T02:01:12.105Z,5.24
2017-03-12T02:02:14.824Z,5.23
2017-03-12T02:03:17.020Z,5.15
2017-03-12T02:04:15.320Z,5.21
2017-03-12T02:05:13.478Z,5.05
2017-03-12T02:06:16.940Z,4.93
2017-03-12T02:07:15.433Z,5.07
2017-03-12T02:08:18.118Z,4.98
2017-03-12T02:09:17.158Z,4.97
2017-03-12T02:10:17.394Z,5.14
2017-03-12T02:11:15.818Z,5.20
2017-03-12T02:12:12.730Z,5.30
2017-03-12T02:13:15.823Z,5.35
2017-03-12T02:14:16.028Z,5.42
2017-03-12T02:15:17.506Z,5.32
2017-03-12T02:16:15.611Z,5.13
2017-03-12T02:17:22.574Z,5.14
2017-03-12T02:18:15.680Z,5.21
2017-03-12T02:19:13.970Z,5.16
2017-03-12T02:20:13.663Z,5.06
2017-03-12T02:21:16.882Z,5.01
2017-03-12T02:22:15.278Z,5.13
2017-03-12T02:23:15.671Z,5.09
2017-03-12T02:24:16.015Z,5.06
2017-03-12T02:25:17.452Z,5.08
2017-03-12T02:26:15.606Z,5.05
2017-03-12T02:27:22.392Z,5.00
2017-03-12T02:28:16.337Z,5.15
2017-03-12T02:29:22.170Z,5.13
2017-03-12T02:30:15.537Z,5.20
2017-03-12T02:31:16.143Z,5.08
2017-03-12T02:32:13.746Z,5.16
2017-03-12T02:33:15.835Z,4.96
2017-03-12T02:34:16.366Z,4.84
2017-03-12T02:35:17.096Z,5.05
2017-03-12T02:36:17.141Z,4.82
2017-03-12T02:37:22.683Z,4.93
2017-03-12T02:38:15.872Z,4.74
2017-03-12T02:39:12.516Z,4.71
2017-03-12T02:40:14.258Z,5.00
2017-03-12T02:41:15.883Z,4.90
2017-03-12T02:42:17.650Z,5.06
2017-03-12T02:43:20.755Z,4.68
2017-03-12T02:44:17.369Z,4.84
2017-03-12T02:45:18.371Z,4.78
2017-03-12T02:47:16.646Z,4.99
2017-03-12T02:48:13.718Z,4.66
2017-03-12T02:49:16.835Z,4.87
2017-03-12T02:53:15.928Z,4.81
2017-03-12T02:54:22.711Z,4.74
2017-03-12T02:57:23.087Z,4.80
2017-03-12T03:01:14.877Z,4.91
2017-03-12T03:07:30.286Z,4.80
2017-03-12T03:08:27.912Z,4.93
2017-03-12T03:09:14.200Z,4.90
2017-03-12T03:14:14.921Z,4.73
2017-03-12T03:16:14.651Z,4.38
2017-03-12T03:23:18.402Z,4.50
2017-03-12T03:26:14.598Z,4.63
2017-03-12T03:30:13.638Z,4.51
2017-03-12T03:34:23.453Z,4.32
2017-03-12T03:35:21.205Z,4.49
2017-03-12T03:36:14.810Z,4.13
2017-03-12T03:37:22.962Z,4.24
2017-03-12T03:43:13.766Z,4.41
2017-03-12T03:44:25.779Z,4.21
2017-03-12T03:45:15.758Z,4.43
2017-03-12T03:46:15.597Z,4.53
2017-03-12T03:47:13.734Z,4.50
2017-03-12T03:49:13.945Z,4.16
2017-03-12T03:50:13.612Z,4.40
2017-03-12T03:51:21.659Z,4.45
2017-03-12T03:52:22.120Z,4.54
2017-03-12T03:53:15.313Z,4.42
2017-03-12T03:54:20.985Z,4.38
2017-03-12T03:55:15.804Z,4.41
2017-03-12T03:56:13.945Z,4.32
2017-03-12T03:57:21.166Z,4.04
2017-03-12T03:58:21.850Z,4.25
2017-03-12T03:59:13.630Z,4.28
2017-03-12T04:00:22.554Z,4.26
2017-03-12T04:01:20.871Z,4.24
2017-03-12T04:02:14.846Z,4.05
2017-03-12T04:03:15.877Z,4.21
2017-03-12T04:04:17.034Z,4.23
2017-03-12T04:05:18.350Z,4.09
2017-03-12T04:06:12.021Z,3.88
2017-03-12T04:07:16.620Z,3.94
2017-03-12T04:08:13.838Z,3.96
2017-03-12T04:09:22.129Z,3.86
2017-03-12T04:10:16.781Z,3.85
2017-03-12T04:11:18.191Z,3.97
2017-03-12T04:12:18.308Z,4.09
2017-03-12T04:13:21.289Z,3.96
2017-03-12T04:14:16.706Z,3.99
2017-03-12T04:15:20.922Z,4.04
2017-03-12T04:16:21.550Z,3.87
2017-03-12T04:17:15.529Z,3.73
2017-03-12T04:18:15.707Z,3.76
2017-03-12T04:19:21.460Z,3.72
2017-03-12T04:20:13.541Z,3.87
2017-03-12T04:21:13.656Z,3.76
2017-03-12T04:22:16.845Z,3.62
2017-03-12T04:23:13.650Z,3.71
2017-03-12T04:24:21.097Z,3.70
2017-03-12T04:25:15.631Z,3.75
2017-03-12T04:26:17.333Z,3.65
2017-03-12T04:27:18.185Z,3.78
2017-03-12T04:28:17.294Z,3.60
2017-03-12T04:29:16.608Z,3.64
2017-03-12T04:30:18.146Z,3.64
2017-03-12T04:31:21.136Z,3.63
2017-03-12T04:32:14.994Z,3.58
2017-03-12T04:33:25.675Z,3.53
2017-03-12T04:34:13.478Z,3.58
2017-03-12T04:35:15.517Z,3.50
2017-03-12T04:36:22.069Z,3.62
2017-03-12T04:37:13.656Z,3.62
2017-03-12T04:38:17.157Z,3.62
2017-03-12T04:39:12.202Z,3.57
2017-03-12T04:40:20.884Z,3.59
2017-03-12T04:41:15.694Z,3.59
2017-03-12T04:42:17.948Z,3.52
2017-03-12T04:43:21.048Z,3.55
2017-03-12T04:44:17.437Z,3.70
2017-03-12T04:45:16.522Z,3.67
2017-03-12T04:46:22.586Z,3.66
2017-03-12T04:47:17.803Z,3.64
2017-03-12T04:48:17.081Z,3.37
2017-03-12T04:49:22.211Z,3.40
2017-03-12T04:50:15.878Z,3.66
2017-03-12T04:51:16.716Z,3.79
2017-03-12T04:52:12.854Z,3.73
2017-03-12T04:53:15.547Z,3.83
2017-03-12T04:54:20.706Z,3.66
2017-03-12T04:55:14.114Z,3.64
2017-03-12T04:56:22.566Z,3.62
2017-03-12T04:57:15.542Z,3.73
2017-03-12T04:58:16.670Z,3.75
2017-03-12T04:59:22.517Z,3.76
2017-03-12T05:00:16.994Z,3.74
2017-03-12T05:01:15.867Z,3.72
2017-03-12T05:03:16.681Z,3.74
2017-03-12T05:04:15.882Z,3.62
2017-03-12T05:05:17.142Z,3.71
2017-03-12T05:06:15.812Z,3.66
2017-03-12T05:07:13.755Z,3.49
2017-03-12T05:08:13.675Z,3.59
2017-03-12T05:09:26.205Z,3.69
2017-03-12T05:10:16.683Z,3.70
2017-03-12T05:11:18.075Z,3.69
2017-03-12T05:12:21.158Z,3.53
2017-03-12T05:13:13.473Z,3.60
2017-03-12T05:14:16.593Z,3.73
2017-03-12T05:15:17.330Z,3.56
2017-03-12T05:16:21.314Z,3.65
2017-03-12T05:17:16.912Z,3.53
2017-03-12T05:18:17.254Z,3.56
2017-03-12T05:19:22.001Z,3.56
2017-03-12T05:20:21.209Z,3.42
2017-03-12T05:21:21.509Z,3.60
2017-03-12T05:22:13.765Z,3.33
2017-03-12T05:23:15.853Z,3.38
2017-03-12T05:24:21.948Z,3.33
2017-03-12T05:26:21.981Z,3.04
2017-03-12T05:27:17.050Z,3.19
2017-03-12T05:28:16.747Z,3.20
2017-03-12T05:29:15.872Z,3.29
2017-03-12T05:30:17.724Z,3.19
2017-03-12T05:31:14.031Z,3.17
2017-03-12T05:32:21.368Z,3.33
2017-03-12T05:33:15.860Z,3.21
2017-03-12T05:34:20.848Z,3.22
2017-03-12T05:35:15.729Z,3.13
2017-03-12T05:36:15.748Z,3.18
2017-03-12T05:37:22.414Z,3.16
2017-03-12T05:38:21.514Z,3.12
2017-03-12T05:39:13.285Z,3.24
2017-03-12T05:40:14.298Z,3.15
2017-03-12T05:41:25.877Z,3.33
2017-03-12T05:42:21.838Z,3.27
2017-03-12T05:43:20.846Z,3.22
2017-03-12T05:44:17.263Z,3.30
2017-03-12T05:45:20.754Z,3.17
2017-03-12T05:46:16.811Z,3.50
2017-03-12T05:47:15.779Z,3.43
2017-03-12T05:48:21.596Z,3.38
2017-03-12T05:49:14.860Z,3.21
2017-03-12T05:50:16.917Z,3.26
2017-03-12T05:51:13.692Z,3.39
2017-03-12T05:52:16.909Z,3.27
2017-03-12T05:53:20.627Z,3.33
2017-03-12T05:54:21.294Z,3.26
2017-03-12T05:55:15.914Z,3.15
2017-03-12T05:56:17.033Z,3.15
2017-03-12T05:57:20.593Z,3.19
2017-03-12T05:58:18.268Z,3.10
2017-03-12T05:59:15.896Z,3.34
2017-03-12T06:00:13.723Z,3.33
2017-03-12T06:01:13.568Z,3.19
2017-03-12T06:02:17.583Z,3.22
2017-03-12T06:03:16.021Z,3.25
2017-03-12T06:04:16.340Z,3.21
2017-03-12T06:05:26.504Z,3.34
2017-03-12T06:06:16.199Z,3.32
2017-03-12T06:07:17.229Z,3.45
2017-03-12T06:08:16.511Z,3.40
2017-03-12T06:09:22.290Z,3.44
2017-03-12T06:10:13.442Z,3.33
2017-03-12T06:11:15.567Z,3.20
2017-03-12T06:12:16.383Z,3.37
2017-03-12T06:13:21.915Z,3.50
2017-03-12T06:14:21.116Z,3.45
2017-03-12T06:15:13.719Z,3.56
2017-03-12T06:16:16.431Z,3.62
2017-03-12T06:17:17.263Z,3.62
2017-03-12T06:18:16.387Z,3.57
2017-03-12T06:19:22.151Z,3.69
2017-03-12T06:20:17.339Z,3.60
2017-03-12T06:21:12.448Z,3.64
2017-03-12T06:22:16.550Z,3.64
2017-03-12T06:23:18.481Z,3.76
2017-03-12T06:24:14.028Z,3.77
2017-03-12T06:25:21.112Z,3.78
2017-03-12T06:26:13.889Z,3.78
2017-03-12T06:27:16.715Z,3.84
2017-03-12T06:28:15.732Z,3.97
2017-03-12T06:29:17.029Z,4.00
2017-03-12T06:30:17.233Z,3.89
2017-03-12T06:31:13.796Z,4.08
2017-03-12T06:32:17.588Z,4.04
2017-03-12T06:33:15.921Z,4.13
2017-03-12T06:34:16.065Z,4.19
2017-03-12T06:35:17.077Z,4.05
2017-03-12T06:36:15.828Z,4.06
2017-03-12T06:37:15.930Z,4.15
2017-03-12T06:38:22.722Z,4.08
2017-03-12T06:39:21.722Z,4.01
2017-03-12T06:40:21.852Z,4.19
2017-03-12T06:41:17.349Z,4.14
2017-03-12T06:42:17.465Z,4.19
2017-03-12T06:43:21.705Z,4.17
2017-03-12T06:44:22.206Z,4.11
2017-03-12T06:46:22.226Z,4.24
2017-03-12T06:47:17.249Z,4.46
2017-03-12T06:48:22.978Z,4.24
2017-03-12T06:49:16.889Z,4.34
2017-03-12T06:50:17.502Z,4.49
2017-03-12T06:51:20.877Z,4.42
2017-03-12T06:52:13.690Z,4.42
2017-03-12T06:53:16.913Z,4.53
2017-03-12T06:54:20.996Z,4.47
2017-03-12T06:55:16.313Z,4.59
2017-03-12T06:56:13.783Z,4.56
2017-03-12T06:57:22.605Z,4.38
2017-03-12T06:58:17.724Z,4.51
2017-03-12T06:59:12.781Z,4.39
2017-03-12T07:00:13.818Z,4.50
2017-03-12T07:01:16.397Z,4.57
2017-03-12T07:02:21.289Z,4.62
2017-03-12T07:03:21.026Z,4.78
2017-03-12T07:04:12.147Z,4.81
2017-03-12T07:05:16.751Z,4.88
2017-03-12T07:06:16.983Z,4.86
2017-03-12T07:07:15.775Z,4.66
2017-03-12T07:08:13.666Z,4.64
2017-03-12T07:09:16.717Z,4.64
2017-03-12T07:10:15.887Z,4.83
2017-03-12T07:11:22.003Z,4.80
2017-03-12T07:12:22.551Z,4.90
2017-03-12T07:13:22.552Z,4.83
2017-03-12T07:14:21.864Z,4.85
2017-03-12T07:15:27.111Z,4.80
2017-03-12T07:16:21.017Z,4.65
2017-03-12T07:17:21.573Z,4.62
2017-03-12T07:18:20.711Z,4.77
2017-03-12T07:19:13.288Z,4.93
2017-03-12T07:20:20.802Z,5.17
2017-03-12T07:21:16.613Z,4.98
2017-03-12T07:22:21.452Z,4.90
2017-03-12T07:23:22.481Z,4.95
2017-03-12T07:24:22.583Z,5.12
2017-03-12T07:25:23.585Z,5.15
2017-03-12T07:26:16.603Z,5.30
2017-03-12T07:27:16.736Z,5.09
2017-03-12T07:28:16.131Z,5.07
2017-03-12T07:29:21.976Z,5.26
2017-03-12T07:30:22.071Z,5.10
2017-03-12T07:31:17.301Z,5.10
2017-03-12T07:32:25.964Z,5.12
2017-03-12T07:33:26.412Z,5.21
2017-03-12T07:34:22.428Z,5.21
2017-03-12T07:35:22.011Z,5.19
2017-03-12T07:36:16.685Z,5.24
2017-03-12T07:37:16.072Z,5.23
2017-03-12T07:38:21.709Z,5.37
2017-03-12T07:39:21.224Z,5.30
2017-03-12T07:40:11.417Z,5.20
2017-03-12T07:41:16.406Z,5.46
2017-03-12T07:42:20.669Z,5.12
2017-03-12T07:43:21.971Z,5.40
2017-03-12T07:44:13.472Z,5.49
2017-03-12T07:45:25.589Z,5.52
2017-03-12T07:46:25.676Z,5.53
2017-03-12T07:47:22.102Z,5.58
2017-03-12T07:48:21.438Z,5.64
2017-03-12T07:49:16.728Z,5.67
2017-03-12T07:50:14.282Z,5.78
2017-03-12T07:51:17.439Z,5.62
2017-03-12T07:52:15.939Z,5.59
2017-03-12T07:53:11.672Z,5.54
2017-03-12T07:54:16.999Z,5.52
2017-03-12T07:55:20.806Z,5.55
2017-03-12T07:56:12.883Z,5.64
2017-03-12T07:57:13.664Z,5.78
2017-03-12T07:58:22.485Z,5.77
2017-03-12T07:59:17.935Z,5.76
2017-03-12T08:00:15.927Z,5.83
2017-03-12T08:01:16.305Z,5.76
2017-03-12T08:02:18.221Z,5.64
2017-03-12T08:03:18.503Z,5.78
2017-03-12T08:04:17.790Z,5.83
2017-03-12T08:05:21.199Z,5.89
2017-03-12T08:06:22.231Z,5.78
2017-03-12T08:07:22.377Z,5.86
2017-03-12T08:08:16.818Z,5.80
2017-03-12T08:09:17.498Z,5.89
2017-03-12T08:10:17.143Z,5.87
2017-03-12T08:11:16.226Z,5.87
2017-03-12T08:12:16.319Z,5.92
2017-03-12T08:14:21.649Z,5.92
2017-03-12T08:15:15.916Z,6.04
2017-03-12T08:16:18.476Z,5.96
2017-03-12T08:17:16.489Z,6.05
2017-03-12T08:18:17.429Z,5.90
2017-03-12T08:19:22.647Z,5.96
2017-03-12T08:20:12.130Z,5.99
2017-03-12T08:21:13.955Z,6.11
2017-03-12T08:22:21.266Z,6.16
2017-03-12T08:23:21.479Z,6.25
2017-03-12T08:24:20.541Z,6.25
2017-03-12T08:25:26.311Z,6.29
2017-03-12T08:26:17.460Z,6.26
2017-03-12T08:27:12.866Z,6.17
2017-03-12T08:28:16.919Z,6.36
2017-03-12T08:29:12.295Z,6.23
2017-03-12T08:30:21.588Z,6.16
2017-03-12T08:31:16.940Z,6.24
2017-03-12T08:32:20.775Z,6.31
2017-03-12T08:33:13.010Z,6.35
2017-03-12T08:34:17.288Z,6.40
2017-03-12T08:35:26.696Z,6.40
2017-03-12T08:36:20.793Z,6.33
2017-03-12T08:37:17.986Z,6.34
2017-03-12T08:38:15.898Z,6.46
2017-03-12T08:39:13.428Z,6.53
2017-03-12T08:40:17.134Z,6.60
2017-03-12T08:41:16.280Z,6.53
2017-03-12T08:42:16.520Z,6.59
2017-03-12T08:43:22.185Z,6.52
2017-03-12T08:44:17.278Z,6.67
2017-03-12T08:45:16.525Z,6.84
2017-03-12T08:46:16.862Z,6.82
2017-03-12T08:47:16.998Z,6.95
2017-03-12T08:48:17.119Z,6.86
2017-03-12T08:49:16.837Z,6.84
2017-03-12T08:50:16.909Z,6.92
2017-03-12T08:51:15.027Z,6.82
2017-03-12T08:52:16.553Z,6.85
2017-03-12T08:53:21.146Z,6.88
2017-03-12T08:54:13.565Z,6.95
2017-03-12T08:55:21.985Z,6.82
2017-03-12T08:56:13.100Z,6.89
2017-03-12T08:57:21.224Z,6.83
2017-03-12T08:58:22.322Z,6.87
2017-03-12T08:59:17.960Z,6.78
2017-03-12T09:00:22.006Z,6.83
2017-03-12T09:01:11.851Z,6.87
2017-03-12T09:02:15.908Z,6.80
2017-03-12T09:03:11.664Z,6.90
2017-03-12T09:04:17.320Z,6.95
2017-03-12T09:05:15.905Z,7.04
2017-03-12T09:06:22.213Z,7.06
2017-03-12T09:07:22.317Z,7.09
2017-03-12T09:08:22.235Z,7.12
2017-03-12T09:09:16.193Z,7.16
2017-03-12T09:10:16.426Z,7.16
2017-03-12T09:11:21.496Z,7.25
2017-03-12T09:12:16.211Z,7.28
2017-03-12T09:13:16.170Z,7.27
2017-03-12T09:14:16.064Z,7.27
2017-03-12T09:15:22.213Z,7.33
2017-03-12T09:16:15.976Z,7.38
2017-03-12T09:17:16.695Z,7.39
2017-03-12T09:18:17.621Z,7.37
2017-03-12T09:19:17.149Z,7.41
2017-03-12T09:20:16.780Z,7.44
2017-03-12T09:21:23.544Z,7.52
2017-03-12T09:22:17.555Z,7.48
2017-03-12T09:23:25.669Z,7.46
2017-03-12T09:24:16.951Z,7.46
2017-03-12T09:25:22.334Z,7.52
2017-03-12T09:26:16.759Z,7.57
2017-03-12T09:27:14.174Z,7.59
2017-03-12T09:28:17.497Z,7.61
2017-03-12T09:29:13.128Z,7.63
2017-03-12T09:30:21.927Z,7.71
2017-03-12T09:31:17.530Z,7.73
2017-03-12T09:32:17.248Z,7.78
2017-03-12T09:33:17.548Z,7.77
2017-03-12T09:34:22.286Z,7.77
2017-03-12T09:35:12.170Z,7.73
2017-03-12T09:36:18.219Z,7.67
2017-03-12T09:37:22.585Z,7.72
2017-03-12T09:38:22.069Z,7.66
2017-03-12T09:39:16.676Z,7.74
2017-03-12T09:40:12.707Z,7.81
2017-03-12T09:41:18.435Z,7.80
2017-03-12T09:42:26.555Z,7.78
2017-03-12T09:43:22.107Z,7.81
2017-03-12T09:44:21.117Z,7.86
2017-03-12T09:45:21.898Z,7.80
2017-03-12T09:46:22.168Z,7.79
2017-03-12T09:47:17.061Z,7.87
2017-03-12T09:48:22.273Z,7.79
2017-03-12T09:49:15.797Z,7.81
2017-03-12T09:50:13.933Z,7.84
2017-03-12T09:51:22.411Z,7.91
2017-03-12T09:52:16.566Z,7.82
2017-03-12T09:53:16.534Z,7.80
2017-03-12T09:54:18.182Z,7.95
2017-03-12T09:56:15.498Z,7.96
2017-03-12T09:57:22.195Z,8.05
2017-03-12T09:58:22.190Z,8.08
2017-03-12T09:59:17.325Z,8.06
2017-03-12T10:00:16.409Z,8.08
2017-03-12T10:01:16.133Z,8.12
2017-03-12T10:02:22.193Z,8.14
2017-03-12T10:03:21.983Z,8.14
2017-03-12T10:04:13.735Z,8.19
2017-03-12T10:05:13.851Z,8.20
2017-03-12T10:06:18.076Z,8.29
2017-03-12T10:07:16.834Z,8.24
2017-03-12T10:08:16.999Z,8.31
2017-03-12T10:09:21.813Z,8.25
2017-03-12T10:10:17.234Z,8.32
2017-03-12T10:11:16.263Z,8.45
2017-03-12T10:12:16.464Z,8.45
2017-03-12T10:13:22.154Z,8.43
2017-03-12T10:14:15.914Z,8.49
2017-03-12T10:15:20.888Z,8.50
2017-03-12T10:16:12.017Z,8.58
2017-03-12T10:17:17.760Z,8.61
2017-03-12T10:18:26.363Z,8.51
2017-03-12T10:20:27.387Z,8.56
2017-03-12T10:21:16.313Z,8.51
2017-03-12T10:22:22.055Z,8.40
2017-03-12T10:24:22.395Z,8.53
2017-03-12T10:25:21.461Z,8.52
2017-03-12T10:26:25.557Z,8.52
2017-03-12T10:27:16.081Z,8.50
2017-03-12T10:28:15.884Z,8.51
2017-03-12T10:30:18.830Z,8.59
2017-03-12T10:32:11.358Z,8.73
2017-03-12T10:33:13.747Z,8.74
2017-03-12T10:34:16.285Z,8.78
2017-03-12T10:36:17.153Z,8.73
2017-03-12T10:37:22.087Z,8.70
2017-03-12T10:38:17.076Z,8.64
2017-03-12T10:39:17.399Z,8.71
2017-03-12T10:41:17.125Z,8.73
2017-03-12T10:42:21.102Z,8.84
2017-03-12T10:44:16.475Z,8.85
2017-03-12T10:45:22.566Z,8.84
2017-03-12T10:46:15.891Z,8.93
2017-03-12T10:47:15.927Z,8.94
2017-03-12T10:48:12.946Z,8.96
2017-03-12T10:49:21.200Z,8.97
2017-03-12T10:50:22.087Z,8.99
2017-03-12T10:52:20.773Z,8.88
2017-03-12T10:53:13.081Z,8.96
2017-03-12T10:54:22.440Z,9.00
2017-03-12T10:56:14.136Z,9.02
2017-03-12T10:57:23.201Z,9.00
2017-03-12T10:58:17.018Z,9.06
2017-03-12T10:59:21.142Z,9.04
2017-03-12T11:00:22.172Z,9.01
2017-03-12T11:01:16.724Z,8.96
2017-03-12T11:02:18.345Z,9.02
2017-03-12T11:03:12.618Z,9.02
2017-03-12T11:04:17.474Z,9.01
2017-03-12T11:05:11.553Z,9.11
2017-03-12T11:06:22.451Z,9.08
2017-03-12T11:07:22.683Z,9.05
2017-03-12T11:08:13.969Z,8.97
2017-03-12T11:09:17.234Z,9.02
2017-03-12T11:10:22.545Z,9.05
2017-03-12T11:11:20.637Z,8.99
2017-03-12T11:12:20.747Z,9.10
2017-03-12T11:13:16.400Z,9.17
2017-03-12T11:14:15.274Z,9.15
2017-03-12T11:15:16.893Z,9.11
2017-03-12T11:16:21.172Z,9.10
2017-03-12T11:17:21.271Z,9.19
2017-03-12T11:18:22.627Z,9.19
2017-03-12T11:19:16.145Z,9.18
2017-03-12T11:20:21.352Z,9.18
2017-03-12T11:21:22.152Z,9.17
2017-03-12T11:22:16.476Z,9.22
2017-03-12T11:23:13.711Z,9.24
2017-03-12T11:24:17.217Z,9.30
2017-03-12T11:25:14.402Z,9.34
2017-03-12T11:26:12.885Z,9.39
2017-03-12T11:27:16.501Z,9.35
2017-03-12T11:28:21.560Z,9.30
2017-03-12T11:29:21.672Z,9.36
2017-03-12T11:30:21.491Z,9.40
2017-03-12T11:31:14.619Z,9.24
2017-03-12T11:32:13.531Z,9.29
2017-03-12T11:33:18.765Z,9.43
2017-03-12T11:35:11.864Z,9.51
2017-03-12T11:36:21.550Z,9.55
2017-03-12T11:37:16.413Z,9.51
2017-03-12T11:38:16.532Z,9.46
2017-03-12T11:39:20.567Z,9.40
2017-03-12T11:40:17.502Z,9.42
2017-03-12T11:41:22.406Z,9.41
2017-03-12T11:42:16.514Z,9.43
2017-03-12T11:43:21.529Z,9.47
2017-03-12T11:44:16.527Z,9.55
2017-03-12T11:45:12.525Z,9.50
2017-03-12T11:46:21.701Z,9.42
2017-03-12T11:47:13.794Z,9.41
2017-03-12T11:48:20.794Z,9.41
2017-03-12T11:49:16.906Z,9.44
2017-03-12T11:50:12.783Z,9.43
2017-03-12T11:51:20.756Z,9.50
2017-03-12T11:52:20.923Z,9.49
2017-03-12T11:53:13.012Z,9.63
2017-03-12T11:54:16.944Z,9.61
2017-03-12T11:55:17.716Z,9.58
2017-03-12T11:56:19.651Z,9.59
2017-03-12T11:58:22.211Z,9.63
2017-03-12T11:59:21.990Z,9.67
2017-03-12T12:00:18.230Z,9.74
2017-03-12T12:01:16.520Z,9.71
2017-03-12T12:02:20.915Z,9.72
2017-03-12T12:03:20.922Z,9.71
2017-03-12T12:04:26.139Z,9.69
2017-03-12T12:05:13.318Z,9.67
2017-03-12T12:06:22.348Z,9.70
2017-03-12T12:07:22.082Z,9.75
2017-03-12T12:08:15.910Z,9.75
2017-03-12T12:09:22.943Z,9.64
2017-03-12T12:10:16.581Z,9.68
2017-03-12T12:11:16.796Z,9.76
2017-03-12T12:12:18.550Z,9.96
2017-03-12T12:13:16.570Z,9.94
2017-03-12T12:14:17.370Z,10.00
2017-03-12T12:15:16.433Z,10.12
2017-03-12T12:16:20.519Z,10.09
2017-03-12T12:17:18.952Z,10.04
2017-03-12T12:18:18.902Z,10.02
2017-03-12T12:21:12.821Z,9.92
2017-03-12T12:24:19.006Z,10.13
2017-03-12T12:25:12.316Z,10.18
2017-03-12T12:27:12.665Z,10.12
2017-03-12T12:28:13.587Z,10.09
2017-03-12T12:30:23.587Z,10.24
2017-03-12T12:31:18.031Z,10.17
2017-03-12T12:33:23.022Z,10.26
2017-03-12T12:34:21.841Z,10.32
2017-03-12T12:35:14.293Z,10.24
2017-03-12T12:36:20.873Z,10.25
2017-03-12T12:37:13.735Z,10.26
2017-03-12T12:39:14.802Z,10.20
2017-03-12T12:40:21.428Z,10.21
2017-03-12T12:41:13.678Z,10.23
2017-03-12T12:45:14.578Z,10.33
2017-03-12T12:46:16.635Z,10.34
2017-03-12T12:47:20.970Z,10.36
2017-03-12T12:48:21.313Z,10.36
2017-03-12T12:49:13.592Z,10.23
2017-03-12T12:51:20.941Z,10.30
2017-03-12T12:52:21.047Z,10.37
2017-03-12T12:53:22.122Z,10.33
2017-03-12T12:54:20.430Z,10.31
2017-03-12T12:56:19.927Z,10.29
2017-03-12T12:59:23.557Z,10.37
2017-03-12T13:00:16.463Z,10.42
2017-03-12T13:01:13.660Z,10.48
2017-03-12T13:03:19.759Z,10.45
2017-03-12T13:05:16.891Z,10.58
2017-03-12T13:06:17.120Z,10.60
2017-03-12T13:07:17.528Z,10.67
2017-03-12T13:08:17.481Z,10.71
2017-03-12T13:09:19.591Z,10.77
2017-03-12T13:13:20.792Z,10.94
2017-03-12T13:14:35.126Z,10.94
2017-03-12T13:15:15.211Z,10.98
2017-03-12T13:16:14.702Z,11.02
2017-03-12T13:17:17.624Z,11.16
2017-03-12T13:18:20.816Z,11.24
2017-03-12T13:19:13.579Z,11.32
2017-03-12T13:21:21.039Z,11.36
2017-03-12T13:24:26.390Z,11.43
2017-03-12T13:25:20.680Z,11.51
2017-03-12T13:28:14.310Z,11.63
2017-03-12T13:29:19.439Z,11.60
2017-03-12T13:31:22.325Z,11.71
2017-03-12T13:32:23.905Z,11.82
2017-03-12T13:33:12.582Z,11.87
2017-03-12T13:34:14.602Z,11.97
2017-03-12T13:35:20.316Z,12.09
2017-03-12T13:36:13.394Z,11.92
2017-03-12T13:38:16.314Z,11.87
2017-03-12T13:40:12.877Z,11.85
2017-03-12T13:42:18.239Z,11.81
2017-03-12T13:43:23.606Z,11.99
2017-03-12T13:45:20.597Z,12.93
2017-03-12T13:46:14.236Z,12.98
2017-03-12T13:47:15.875Z,13.13
2017-03-12T13:49:13.889Z,12.80
2017-03-12T13:50:21.074Z,13.10
2017-03-12T13:53:23.434Z,12.88
2017-03-12T13:54:25.260Z,12.63
2017-03-12T13:56:12.602Z,12.61
2017-03-12T13:57:12.437Z,12.42
2017-03-12T13:58:18.209Z,12.50
2017-03-12T13:59:21.578Z,12.70
2017-03-12T14:00:13.481Z,12.76
2017-03-12T14:02:14.559Z,14.64
2017-03-12T14:03:18.649Z,16.06
2017-03-12T14:05:21.119Z,15.28
2017-03-12T14:06:20.579Z,15.01
2017-03-12T14:07:18.678Z,15.46
2017-03-12T14:08:13.346Z,15.72
2017-03-12T14:11:21.580Z,15.60
2017-03-12T14:12:20.759Z,15.39
2017-03-12T14:14:19.764Z,14.21
2017-03-12T14:15:11.744Z,13.44
2017-03-12T14:18:11.201Z,12.85
2017-03-12T14:19:23.327Z,13.14
2017-03-12T14:20:21.508Z,13.05
2017-03-12T14:21:15.261Z,13.07
2017-03-12T14:22:21.986Z,12.84
2017-03-12T14:25:23.791Z,12.79
2017-03-12T14:26:27.803Z,13.67
2017-03-12T14:27:21.262Z,14.46
2017-03-12T14:30:18.411Z,14.79
2017-03-12T14:33:12.250Z,13.61
2017-03-12T14:34:27.904Z,13.41
2017-03-12T14:35:21.301Z,13.07
2017-03-12T14:37:12.585Z,13.13
2017-03-12T14:38:12.708Z,13.26
2017-03-12T14:39:20.996Z,13.41
2017-03-12T14:40:21.941Z,13.11
2017-03-12T14:41:12.017Z,13.63
2017-03-12T14:43:15.503Z,13.28
2017-03-12T14:44:24.408Z,13.01
2017-03-12T14:45:13.469Z,12.91
2017-03-12T14:46:27.967Z,12.96
2017-03-12T14:47:17.097Z,12.79
2017-03-12T14:48:22.461Z,12.89
2017-03-12T14:50:18.808Z,12.45
2017-03-12T14:51:17.671Z,12.12
2017-03-12T14:52:11.847Z,11.77
2017-03-12T14:53:21.487Z,11.66
2017-03-12T14:54:22.620Z,11.85
2017-03-12T14:55:27.924Z,11.58
2017-03-12T14:57:22.810Z,11.91
2017-03-12T14:58:16.475Z,12.16
2017-03-12T14:59:21.574Z,12.33
2017-03-12T15:01:18.679Z,12.17